Time;durP1;ratioP1;P1;durP2;ratioP2;P2;SDS_P1;SDS_P2;PMS_P1;PMS_P2;Temp;Humidity;BMP_temperature;BMP_pressure;BME280_temperature;BME280_humidity;BME280_pressure;Samples;Min_cycle;Max_cycle;Signal;HPM_P1;HPM_P2
2023/05/21 00:01:51;;;;;;;10.95;5.53;;;13.90;99.90;;;;;;5052878;28;20033;-48
2023/05/21 00:04:17;;;;;;;9.90;5.38;;;13.80;99.90;;;;;;5053407;28;20029;-48
2023/05/21 00:06:43;;;;;;;11.52;6.28;;;13.80;99.90;;;;;;5053201;28;20029;-49
2023/05/21 00:09:09;;;;;;;11.00;5.82;;;13.80;99.90;;;;;;5053091;28;20032;-49
2023/05/21 00:11:35;;;;;;;11.40;5.22;;;13.80;99.90;;;;;;5052603;28;20142;-49
2023/05/21 00:14:00;;;;;;;10.95;5.72;;;13.70;99.90;;;;;;5052754;28;20497;-50
2023/05/21 00:16:26;;;;;;;11.35;5.28;;;13.70;99.90;;;;;;5053132;28;20033;-48
2023/05/21 00:18:53;;;;;;;10.43;5.63;;;13.70;99.90;;;;;;5052926;28;20454;-46
2023/05/21 00:21:21;;;;;;;8.82;4.78;;;13.70;99.90;;;;;;5052861;28;20634;-47
2023/05/21 00:23:55;;;;;;;10.77;5.03;;;13.70;99.90;;;;;;5052895;28;20021;-47
2023/05/21 00:26:21;;;;;;;9.10;5.13;;;13.70;99.90;;;;;;5053145;28;20037;-50
2023/05/21 00:28:48;;;;;;;10.45;5.50;;;13.70;99.90;;;;;;5052958;28;20021;-48
2023/05/21 00:31:14;;;;;;;10.55;5.03;;;13.80;99.90;;;;;;5051551;28;20559;-48
2023/05/21 00:33:40;;;;;;;9.88;5.30;;;13.70;99.90;;;;;;5052618;28;20534;-48
2023/05/21 00:36:07;;;;;;;9.70;5.00;;;13.70;99.90;;;;;;5052891;28;20029;-48
2023/05/21 00:38:33;;;;;;;9.57;5.00;;;13.70;99.90;;;;;;5052636;28;20401;-48
2023/05/21 00:41:02;;;;;;;7.00;4.30;;;13.70;99.90;;;;;;5052465;28;20029;-49
2023/05/21 00:43:28;;;;;;;9.40;5.00;;;13.70;99.90;;;;;;5052369;28;20029;-48
2023/05/21 00:45:55;;;;;;;10.20;4.75;;;13.70;99.90;;;;;;5052687;28;20033;-48
2023/05/21 00:48:22;;;;;;;8.23;4.38;;;13.70;99.90;;;;;;5052411;28;20531;-48
2023/05/21 00:50:48;;;;;;;8.07;4.30;;;13.70;99.90;;;;;;5052296;28;20052;-47
2023/05/21 00:53:17;;;;;;;8.23;4.57;;;13.70;99.90;;;;;;5052281;28;20094;-47
2023/05/21 00:55:43;;;;;;;8.82;4.40;;;13.70;99.90;;;;;;5052274;28;20037;-48
2023/05/21 00:58:09;;;;;;;6.68;4.35;;;13.60;99.90;;;;;;5052211;28;20029;-47
2023/05/21 01:00:36;;;;;;;9.27;4.68;;;13.70;99.90;;;;;;5051973;28;20032;-48
2023/05/21 01:03:03;;;;;;;7.97;4.28;;;13.70;99.90;;;;;;5051780;28;20033;-48
2023/05/21 01:05:29;;;;;;;9.73;4.18;;;13.70;99.90;;;;;;5050800;28;20048;-47
2023/05/21 01:07:56;;;;;;;7.88;4.15;;;13.70;99.90;;;;;;5052101;28;20185;-49
2023/05/21 01:10:23;;;;;;;8.88;3.92;;;13.60;99.90;;;;;;5050363;28;20115;-49
2023/05/21 01:12:51;;;;;;;7.70;4.20;;;13.60;99.90;;;;;;5050485;28;20025;-53
2023/05/21 01:15:17;;;;;;;9.93;4.68;;;13.60;99.90;;;;;;5051948;28;20032;-48
2023/05/21 01:17:47;;;;;;;6.93;3.67;;;13.60;99.90;;;;;;5051838;28;20390;-49
2023/05/21 01:20:19;;;;;;;6.50;3.85;;;13.60;99.90;;;;;;5050498;28;20485;-50
2023/05/21 01:22:55;;;;;;;8.20;3.80;;;13.60;99.90;;;;;;5049248;28;20083;-48
2023/05/21 01:25:23;;;;;;;7.68;3.70;;;13.60;99.90;;;;;;5050291;28;20493;-47
2023/05/21 01:27:49;;;;;;;8.00;4.28;;;13.60;99.90;;;;;;5051852;28;20033;-47
2023/05/21 01:30:20;;;;;;;6.38;3.60;;;13.60;99.90;;;;;;5050026;28;20060;-47
2023/05/21 01:32:55;;;;;;;7.25;4.00;;;13.70;99.90;;;;;;5051239;28;20059;-47
2023/05/21 01:35:47;;;;;;;7.38;3.42;;;13.60;99.90;;;;;;5051384;28;20040;-47
2023/05/21 01:38:28;;;;;;;7.78;3.95;;;13.70;99.90;;;;;;5043734;28;20041;-48
2023/05/21 01:41:09;;;;;;;6.32;3.10;;;13.60;99.90;;;;;;5049958;28;20025;-50
2023/05/21 01:43:38;;;;;;;6.55;3.60;;;13.60;99.90;;;;;;5049686;28;20032;-48
2023/05/21 01:46:06;;;;;;;7.80;3.53;;;13.60;99.90;;;;;;5051298;28;20025;-48
2023/05/21 01:48:33;;;;;;;5.90;3.78;;;13.60;99.90;;;;;;5051741;28;20140;-47
2023/05/21 01:51:02;;;;;;;6.38;3.50;;;13.60;99.90;;;;;;5051058;28;20306;-48
2023/05/21 01:53:28;;;;;;;6.47;3.60;;;13.60;99.90;;;;;;5051257;28;20381;-49
2023/05/21 01:55:54;;;;;;;6.68;3.40;;;13.60;99.90;;;;;;5049875;28;20037;-48
2023/05/21 01:58:21;;;;;;;7.60;3.42;;;13.60;99.90;;;;;;5049604;28;20037;-48
2023/05/21 02:00:49;;;;;;;7.47;3.58;;;13.60;99.90;;;;;;5049435;28;20059;-47
2023/05/21 02:03:16;;;;;;;5.88;3.47;;;13.60;99.90;;;;;;5050781;28;20047;-48
2023/05/21 02:05:42;;;;;;;7.00;3.53;;;13.60;99.90;;;;;;5051096;28;20029;-48
2023/05/21 02:08:08;;;;;;;5.68;3.38;;;13.60;99.90;;;;;;5049651;28;20032;-47
2023/05/21 02:10:35;;;;;;;5.28;3.30;;;13.60;99.90;;;;;;5050661;28;20530;-49
2023/05/21 02:13:01;;;;;;;9.88;3.88;;;13.60;99.90;;;;;;5050524;28;20040;-48
2023/05/21 02:15:28;;;;;;;5.85;3.28;;;13.60;99.90;;;;;;5049403;28;20493;-47
2023/05/21 02:17:54;;;;;;;6.63;3.63;;;13.60;99.90;;;;;;5049417;28;20098;-47
2023/05/21 02:20:21;;;;;;;6.50;3.22;;;13.60;99.90;;;;;;5049329;28;20060;-48
2023/05/21 02:22:48;;;;;;;6.78;3.95;;;13.60;99.90;;;;;;5050471;28;20078;-48
2023/05/21 02:25:15;;;;;;;5.57;3.22;;;13.60;99.90;;;;;;5049297;28;20032;-48
2023/05/21 02:27:42;;;;;;;6.70;4.03;;;13.60;99.90;;;;;;5050651;28;20071;-51
2023/05/21 02:30:12;;;;;;;6.05;3.47;;;13.50;99.90;;;;;;5049101;28;20064;-47
2023/05/21 02:32:41;;;;;;;6.60;3.90;;;13.50;99.90;;;;;;5048831;28;20036;-48
2023/05/21 02:35:08;;;;;;;;;;;13.50;99.90;;;;;;5049878;28;20041;-48
2023/05/21 02:37:34;;;;;;;5.95;3.15;;;13.50;99.90;;;;;;5049059;28;19920;-48
2023/05/21 02:40:03;;;;;;;6.68;3.83;;;13.50;99.90;;;;;;5050328;28;20040;-48
2023/05/21 02:42:28;;;;;;;6.20;3.72;;;13.50;99.90;;;;;;5050509;28;20390;-48
2023/05/21 02:44:55;;;;;;;6.70;3.58;;;13.50;99.90;;;;;;5048966;28;20032;-47
2023/05/21 02:47:22;;;;;;;7.90;3.78;;;13.50;99.90;;;;;;5049202;28;20033;-49
2023/05/21 02:49:49;;;;;;;9.35;4.50;;;13.50;99.90;;;;;;5049125;28;20086;-48
2023/05/21 02:52:20;;;;;;;5.93;3.28;;;13.50;99.90;;;;;;5048746;28;20501;-49
2023/05/21 02:54:46;;;;;;;7.72;3.83;;;13.50;99.90;;;;;;5049116;28;20035;-48
2023/05/21 02:57:12;;;;;;;7.72;4.10;;;13.50;99.90;;;;;;5049054;28;20120;-47
2023/05/21 02:59:38;;;;;;;5.20;3.35;;;13.50;99.90;;;;;;5049193;28;20397;-49
2023/05/21 03:02:04;;;;;;;7.00;3.67;;;13.40;99.90;;;;;;5048820;28;20079;-50
2023/05/21 03:04:31;;;;;;;7.70;3.92;;;13.40;99.90;;;;;;5048946;28;20029;-50
2023/05/21 03:07:00;;;;;;;6.75;3.53;;;13.40;99.90;;;;;;5050173;28;20053;-47
2023/05/21 03:09:27;;;;;;;6.47;3.78;;;13.40;99.90;;;;;;5049165;28;20029;-48
2023/05/21 03:11:55;;;;;;;8.13;3.60;;;13.40;99.90;;;;;;5048774;28;20033;-48
2023/05/21 03:14:21;;;;;;;5.85;3.60;;;13.40;99.90;;;;;;5048871;28;20021;-48
2023/05/21 03:16:47;;;;;;;7.25;3.58;;;13.40;99.90;;;;;;5050213;28;20029;-48
2023/05/21 03:19:14;;;;;;;6.40;3.70;;;13.30;99.90;;;;;;5050721;28;20090;-47
2023/05/21 03:21:41;;;;;;;6.63;3.80;;;13.30;99.90;;;;;;5049969;28;20017;-49
2023/05/21 03:24:08;;;;;;;6.20;3.67;;;13.30;99.90;;;;;;5048888;28;20029;-47
2023/05/21 03:26:34;;;;;;;6.00;3.63;;;13.30;99.90;;;;;;5050505;28;20070;-48
2023/05/21 03:29:00;;;;;;;6.28;3.40;;;13.20;99.90;;;;;;5050383;28;20497;-49
2023/05/21 03:31:26;;;;;;;7.97;3.88;;;13.30;99.90;;;;;;5048741;28;20041;-48
2023/05/21 03:34:07;;;;;;;7.85;3.67;;;13.30;99.90;;;;;;5048721;28;20033;-48
2023/05/21 03:36:33;;;;;;;6.50;3.85;;;13.30;99.90;;;;;;5048683;28;20516;-48
2023/05/21 03:39:00;;;;;;;6.47;3.63;;;13.30;99.90;;;;;;5050010;28;20485;-48
2023/05/21 03:41:26;;;;;;;5.78;3.80;;;13.20;99.90;;;;;;5049812;28;20066;-48
2023/05/21 03:44:01;;;;;;;7.90;3.85;;;13.20;99.90;;;;;;5048720;28;20029;-50
2023/05/21 03:46:34;;;;;;;7.10;3.83;;;13.30;99.90;;;;;;5052104;28;20029;-48
2023/05/21 03:49:15;;;;;;;5.75;3.60;;;13.20;99.90;;;;;;5052330;28;20033;-48
2023/05/21 03:51:41;;;;;;;6.43;3.35;;;13.20;99.90;;;;;;5052178;28;20063;-48
2023/05/21 03:54:11;;;;;;;7.85;3.90;;;13.20;99.90;;;;;;5052064;28;20025;-47
2023/05/21 03:56:38;;;;;;;5.38;3.47;;;13.20;99.90;;;;;;5052484;28;20440;-47
2023/05/21 03:59:04;;;;;;;9.25;3.40;;;13.20;99.90;;;;;;5053195;28;20028;-48
2023/05/21 04:01:31;;;;;;;6.35;3.60;;;13.20;99.90;;;;;;5051860;28;20075;-48
2023/05/21 04:03:58;;;;;;;5.93;3.28;;;13.20;99.90;;;;;;5052119;28;20362;-47
2023/05/21 04:06:26;;;;;;;6.75;3.42;;;13.20;99.90;;;;;;5051998;28;20036;-48
2023/05/21 04:08:52;;;;;;;10.88;3.67;;;13.20;99.90;;;;;;5051972;28;20062;-49
2023/05/21 04:11:18;;;;;;;6.35;3.67;;;13.20;99.90;;;;;;5051558;28;20059;-49
2023/05/21 04:13:44;;;;;;;7.82;3.78;;;13.20;99.90;;;;;;5051336;28;20064;-52
2023/05/21 04:16:13;;;;;;;8.35;3.50;;;13.20;99.90;;;;;;5053040;28;20028;-48
2023/05/21 04:18:43;;;;;;;7.15;3.92;;;13.20;99.90;;;;;;5051676;28;20036;-49
2023/05/21 04:21:08;;;;;;;;;;;13.20;99.90;;;;;;5051975;28;20025;-47
2023/05/21 04:23:36;;;;;;;7.85;3.80;;;13.20;99.90;;;;;;5051422;28;19916;-51
2023/05/21 04:26:06;;;;;;;6.53;3.70;;;13.20;99.90;;;;;;5051656;28;20112;-49
2023/05/21 04:28:34;;;;;;;7.20;3.60;;;13.20;99.90;;;;;;5051402;28;20032;-48
2023/05/21 04:31:00;;;;;;;6.00;3.63;;;13.20;99.90;;;;;;5051220;28;20068;-47
2023/05/21 04:33:27;;;;;;;7.78;4.00;;;13.20;99.90;;;;;;5051206;28;20382;-49
2023/05/21 04:35:54;;;;;;;7.18;4.10;;;13.20;99.90;;;;;;5052592;28;20052;-48
2023/05/21 04:38:19;;;;;;;5.78;3.55;;;13.20;99.90;;;;;;5051025;28;20057;-48
2023/05/21 04:40:52;;;;;;;6.72;3.60;;;13.20;99.90;;;;;;5052253;28;20434;-49
2023/05/21 04:43:24;;;;;;;7.07;4.10;;;13.20;99.90;;;;;;5052373;28;20119;-49
2023/05/21 04:45:53;;;;;;;6.38;3.63;;;13.20;99.90;;;;;;5051293;28;20021;-48
2023/05/21 04:48:23;;;;;;;8.95;4.90;;;13.20;99.90;;;;;;5051190;28;20496;-48
2023/05/21 04:50:49;;;;;;;9.70;5.05;;;13.30;99.90;;;;;;5052091;28;20087;-49
2023/05/21 04:53:15;;;;;;;9.90;5.03;;;13.30;99.90;;;;;;5050691;28;20511;-49
2023/05/21 04:55:41;;;;;;;7.30;4.18;;;13.30;99.90;;;;;;5050883;28;20032;-49
2023/05/21 04:58:09;;;;;;;7.20;3.97;;;13.30;99.90;;;;;;5052170;28;20086;-49
2023/05/21 05:00:37;;;;;;;7.10;3.85;;;13.40;99.90;;;;;;5050877;28;20432;-50
2023/05/21 05:03:04;;;;;;;8.07;4.00;;;13.30;99.90;;;;;;5050655;28;20036;-48
2023/05/21 05:05:31;;;;;;;8.55;4.00;;;13.40;99.90;;;;;;5050910;28;20051;-49
2023/05/21 05:07:57;;;;;;;7.25;4.20;;;13.40;99.90;;;;;;5050677;28;20489;-50
2023/05/21 05:10:23;;;;;;;7.32;4.22;;;13.40;99.90;;;;;;5050459;28;20397;-48
2023/05/21 05:12:49;;;;;;;5.82;3.75;;;13.40;99.90;;;;;;5050384;28;20055;-51
2023/05/21 05:15:16;;;;;;;5.82;3.72;;;13.40;99.90;;;;;;5050864;28;20029;-49
2023/05/21 05:17:43;;;;;;;6.43;3.78;;;13.40;99.90;;;;;;5050583;28;20037;-50
2023/05/21 05:20:10;;;;;;;13.63;6.32;;;13.40;99.90;;;;;;5050353;28;20048;-48
2023/05/21 05:22:36;;;;;;;8.50;4.53;;;13.40;99.90;;;;;;5050325;28;20025;-48
2023/05/21 05:25:02;;;;;;;8.15;4.10;;;13.40;99.90;;;;;;5050349;28;20036;-49
2023/05/21 05:27:28;;;;;;;8.73;4.22;;;13.50;99.90;;;;;;5050378;28;20041;-48
2023/05/21 05:29:54;;;;;;;7.35;4.25;;;13.50;99.90;;;;;;5050374;28;20025;-48
2023/05/21 05:32:20;;;;;;;8.52;4.38;;;13.50;99.90;;;;;;5050029;28;20101;-49
2023/05/21 05:34:45;;;;;;;7.43;3.90;;;13.50;99.90;;;;;;5050375;28;20044;-49
2023/05/21 05:37:11;;;;;;;9.90;4.70;;;13.60;99.90;;;;;;5051209;28;20036;-48
2023/05/21 05:39:37;;;;;;;8.13;4.30;;;13.70;99.90;;;;;;5050153;28;20033;-49
2023/05/21 05:42:03;;;;;;;7.32;3.75;;;13.70;99.90;;;;;;5049881;28;20124;-48
2023/05/21 05:44:29;;;;;;;7.90;4.13;;;13.70;99.90;;;;;;5049823;28;20029;-49
2023/05/21 05:46:54;;;;;;;6.57;3.75;;;13.80;99.90;;;;;;5051418;28;20024;-49
2023/05/21 05:49:20;;;;;;;7.35;4.50;;;13.80;99.90;;;;;;5050355;28;20039;-47
2023/05/21 05:51:46;;;;;;;6.82;4.07;;;13.90;99.90;;;;;;5049681;28;20210;-47
2023/05/21 05:54:12;;;;;;;7.68;4.55;;;14.00;99.90;;;;;;5049758;28;20037;-47
2023/05/21 05:56:38;;;;;;;6.85;3.90;;;14.00;99.90;;;;;;5050163;28;20033;-48
2023/05/21 05:59:04;;;;;;;8.38;4.88;;;14.00;99.90;;;;;;5049775;28;20059;-48
2023/05/21 06:01:33;;;;;;;8.02;4.40;;;14.10;99.90;;;;;;5049461;28;20025;-48
2023/05/21 06:03:59;;;;;;;7.57;3.92;;;14.10;99.90;;;;;;5049512;28;20516;-47
2023/05/21 06:06:25;;;;;;;9.38;4.32;;;14.10;99.90;;;;;;5049874;28;20029;-48
2023/05/21 06:08:51;;;;;;;6.90;3.70;;;14.20;99.90;;;;;;5049653;28;20033;-47
2023/05/21 06:11:20;;;;;;;8.75;4.28;;;14.20;99.90;;;;;;5050984;28;20401;-49
2023/05/21 06:13:46;;;;;;;8.68;4.53;;;14.30;99.90;;;;;;5050946;28;20036;-47
2023/05/21 06:16:13;;;;;;;7.22;4.07;;;14.30;99.90;;;;;;5049758;28;20481;-47
2023/05/21 06:18:38;;;;;;;7.53;4.07;;;14.50;99.90;;;;;;5049440;28;20086;-47
2023/05/21 06:21:04;;;;;;;8.63;4.25;;;14.50;99.90;;;;;;5032724;28;20025;-47
2023/05/21 06:23:31;;;;;;;9.38;4.38;;;14.50;99.90;;;;;;5049180;28;20036;-48
2023/05/21 06:25:58;;;;;;;7.35;4.20;;;14.60;99.90;;;;;;5049524;28;20057;-49
2023/05/21 06:28:25;;;;;;;7.97;4.57;;;14.60;99.90;;;;;;5049478;28;20060;-48
2023/05/21 06:30:52;;;;;;;9.05;4.90;;;14.70;99.90;;;;;;5049216;28;20399;-50
2023/05/21 06:33:18;;;;;;;6.75;4.22;;;14.80;99.90;;;;;;5049148;28;20036;-51
2023/05/21 06:35:44;;;;;;;8.02;4.55;;;14.80;99.90;;;;;;5049323;28;20029;-51
2023/05/21 06:38:11;;;;;;;7.90;4.57;;;14.90;99.90;;;;;;5048906;28;20040;-51
2023/05/21 06:40:37;;;;;;;8.18;4.85;;;15.00;99.90;;;;;;5050312;28;20422;-49
2023/05/21 06:43:04;;;;;;;6.47;3.90;;;15.20;99.90;;;;;;5049125;28;20021;-52
2023/05/21 06:45:35;;;;;;;9.13;4.70;;;15.30;99.90;;;;;;5050518;28;20033;-49
2023/05/21 06:48:18;;;;;;;8.73;4.75;;;15.40;99.90;;;;;;5049391;28;20029;-48
2023/05/21 06:50:46;;;;;;;10.27;4.72;;;15.60;99.90;;;;;;5049177;28;20260;-51
2023/05/21 06:53:15;;;;;;;8.73;5.07;;;15.70;99.90;;;;;;5048889;28;20051;-50
2023/05/21 06:55:44;;;;;;;8.40;4.68;;;15.70;99.90;;;;;;5049343;28;20025;-50
2023/05/21 06:58:17;;;;;;;9.23;4.80;;;15.70;99.90;;;;;;5049360;28;20389;-48
2023/05/21 07:00:43;;;;;;;8.57;4.75;;;15.80;99.90;;;;;;5048980;28;20021;-47
2023/05/21 07:03:09;;;;;;;9.68;4.90;;;15.80;99.90;;;;;;5049107;28;20438;-49
2023/05/21 07:05:35;;;;;;;8.23;5.10;;;15.80;99.90;;;;;;5049385;28;20052;-52
2023/05/21 07:08:01;;;;;;;9.48;4.63;;;15.80;99.90;;;;;;5049040;28;20242;-50
2023/05/21 07:10:27;;;;;;;9.80;5.10;;;16.00;99.90;;;;;;5048849;28;20033;-50
2023/05/21 07:12:52;;;;;;;9.48;5.38;;;16.10;99.90;;;;;;5050011;28;20496;-48
2023/05/21 07:15:19;;;;;;;12.40;5.97;;;16.30;99.90;;;;;;5049058;28;20033;-49
2023/05/21 07:17:45;;;;;;;9.32;4.95;;;16.40;99.90;;;;;;5049441;28;20389;-50
2023/05/21 07:20:12;;;;;;;7.88;4.60;;;16.50;99.90;;;;;;5050097;28;20033;-51
2023/05/21 07:22:41;;;;;;;;;;;16.70;99.90;;;;;;5053049;28;20055;-52
2023/05/21 07:25:12;;;;;;;7.25;4.20;;;16.90;99.90;;;;;;5052644;28;19913;-53
2023/05/21 07:27:38;;;;;;;9.02;5.25;;;17.00;99.90;;;;;;5053880;28;20079;-48
2023/05/21 07:30:04;;;;;;;6.88;4.78;;;17.10;99.90;;;;;;5053887;28;20035;-49
2023/05/21 07:32:30;;;;;;;7.78;4.95;;;17.30;99.90;;;;;;5052452;28;20564;-48
2023/05/21 07:35:00;;;;;;;8.90;4.95;;;17.50;99.90;;;;;;5052585;28;20033;-50
2023/05/21 07:37:27;;;;;;;7.63;4.40;;;17.50;99.90;;;;;;5052442;28;20431;-48
2023/05/21 07:39:59;;;;;;;9.23;4.60;;;17.80;99.90;;;;;;5052289;28;20036;-51
2023/05/21 07:42:25;;;;;;;8.68;5.40;;;17.90;99.90;;;;;;5052162;28;20028;-51
2023/05/21 07:44:53;;;;;;;9.98;5.45;;;17.90;99.90;;;;;;5052114;28;20032;-48
2023/05/21 07:47:19;;;;;;;7.38;4.45;;;17.90;99.90;;;;;;5053509;28;20390;-49
2023/05/21 07:49:45;;;;;;;8.23;4.88;;;18.10;99.90;;;;;;5052250;28;20154;-50
2023/05/21 07:52:10;;;;;;;8.65;5.40;;;18.20;99.90;;;;;;5051591;28;20112;-52
2023/05/21 07:54:36;;;;;;;8.05;4.90;;;18.20;99.90;;;;;;5053173;28;20028;-48
2023/05/21 07:57:02;;;;;;;9.57;5.53;;;18.30;99.90;;;;;;5053263;28;20033;-48
2023/05/21 07:59:44;;;;;;;8.80;5.60;;;18.30;99.90;;;;;;5052018;28;20099;-49
2023/05/21 08:02:10;;;;;;;10.48;6.40;;;18.20;99.90;;;;;;5051691;28;20025;-53
2023/05/21 08:04:37;;;;;;;8.43;5.25;;;18.40;99.90;;;;;;5051700;28;20124;-49
2023/05/21 08:07:03;;;;;;;9.57;5.63;;;18.40;99.90;;;;;;5051687;28;20028;-49
2023/05/21 08:09:29;;;;;;;8.35;4.70;;;18.30;99.90;;;;;;5051927;28;20028;-51
2023/05/21 08:11:54;;;;;;;8.20;4.57;;;18.30;99.90;;;;;;5051544;28;20032;-53
2023/05/21 08:14:20;;;;;;;8.63;4.90;;;18.30;99.90;;;;;;5051640;28;20025;-49
2023/05/21 08:16:47;;;;;;;10.25;6.40;;;18.40;99.90;;;;;;5051835;28;20025;-52
2023/05/21 08:19:13;;;;;;;8.05;5.80;;;18.40;99.90;;;;;;5035193;28;20032;-49
2023/05/21 08:21:38;;;;;;;8.52;5.35;;;18.50;99.90;;;;;;5051314;28;20032;-48
2023/05/21 08:24:05;;;;;;;9.18;5.60;;;18.50;99.90;;;;;;5051393;28;20035;-50
2023/05/21 08:26:31;;;;;;;10.57;5.82;;;18.50;99.90;;;;;;5051650;28;20059;-50
2023/05/21 08:28:56;;;;;;;9.77;5.63;;;18.60;99.90;;;;;;5051503;28;20056;-49
2023/05/21 08:31:22;;;;;;;9.95;5.93;;;18.50;99.90;;;;;;5050765;28;20413;-49
2023/05/21 08:33:51;;;;;;;9.35;5.72;;;18.50;99.90;;;;;;5051301;28;20035;-49
2023/05/21 08:36:19;;;;;;;9.15;5.80;;;18.60;99.90;;;;;;5051121;28;20028;-52
2023/05/21 08:38:54;;;;;;;10.60;6.40;;;18.70;99.90;;;;;;5051338;28;20033;-51
2023/05/21 08:41:33;;;;;;;9.30;5.72;;;18.70;99.90;;;;;;5051194;28;20116;-51
2023/05/21 08:44:01;;;;;;;10.82;5.78;;;18.80;99.90;;;;;;5051001;28;20036;-52
2023/05/21 08:46:33;;;;;;;10.18;6.13;;;18.90;99.90;;;;;;5051294;28;20393;-52
2023/05/21 08:49:01;;;;;;;9.52;6.13;;;19.00;99.90;;;;;;5052578;28;20487;-50
2023/05/21 08:51:29;;;;;;;10.13;5.57;;;19.00;99.90;;;;;;5052665;28;20115;-50
2023/05/21 08:53:56;;;;;;;7.25;5.30;;;19.20;99.90;;;;;;5051118;28;20509;-53
2023/05/21 08:56:24;;;;;;;8.68;5.75;;;19.10;99.90;;;;;;5052361;28;20071;-50
2023/05/21 08:58:57;;;;;;;11.10;6.38;;;19.20;99.90;;;;;;5051163;28;20057;-52
2023/05/21 09:01:26;;;;;;;10.20;6.20;;;19.40;99.90;;;;;;5051004;28;20036;-49
2023/05/21 09:04:03;;;;;;;9.30;5.78;;;19.50;99.90;;;;;;5050952;28;20025;-50
2023/05/21 09:06:32;;;;;;;11.27;7.28;;;19.50;99.90;;;;;;5051092;28;20021;-52
2023/05/21 09:09:09;;;;;;;11.43;7.03;;;19.60;99.90;;;;;;5051136;28;20033;-51
2023/05/21 09:11:46;;;;;;;12.00;6.53;;;19.70;99.90;;;;;;5050780;28;20036;-52
2023/05/21 09:14:14;;;;;;;10.88;6.30;;;19.80;99.90;;;;;;5052281;28;20112;-51
2023/05/21 09:17:03;;;;;;;9.95;6.47;;;19.90;99.90;;;;;;5050954;28;20036;-53
2023/05/21 09:19:30;;;;;;;9.68;6.25;;;19.90;99.90;;;;;;5051932;28;20041;-50
2023/05/21 09:22:02;;;;;;;11.30;6.70;;;20.10;99.90;;;;;;5050309;28;20075;-48
2023/05/21 09:24:31;;;;;;;10.77;6.97;;;20.10;99.90;;;;;;5050598;28;20040;-52
2023/05/21 09:27:00;;;;;;;11.20;6.18;;;20.10;99.90;;;;;;5051879;28;20029;-51
2023/05/21 09:29:26;;;;;;;;;;;20.20;99.90;;;;;;5052458;28;20063;-50
2023/05/21 09:31:53;;;;;;;8.60;5.32;;;20.20;99.90;;;;;;5050339;28;19912;-50
2023/05/21 09:34:19;;;;;;;10.05;6.90;;;20.10;99.90;;;;;;5050233;28;20029;-50
2023/05/21 09:36:48;;;;;;;11.27;6.15;;;20.20;99.90;;;;;;5050068;28;20052;-48
2023/05/21 09:39:35;;;;;;;12.65;7.47;;;20.20;99.90;;;;;;5050083;28;20025;-52
2023/05/21 09:42:03;;;;;;;9.63;6.43;;;20.10;99.90;;;;;;5049600;28;20036;-49
2023/05/21 09:44:29;;;;;;;10.45;6.57;;;20.00;99.90;;;;;;5051437;28;20023;-49
2023/05/21 09:46:59;;;;;;;12.43;6.65;;;19.90;99.90;;;;;;5050128;28;20384;-50
2023/05/21 09:49:25;;;;;;;11.57;6.65;;;19.90;99.90;;;;;;5051570;28;20047;-50
2023/05/21 09:51:58;;;;;;;10.98;6.57;;;20.00;99.90;;;;;;5049766;28;20037;-50
2023/05/21 09:54:29;;;;;;;11.48;6.88;;;20.00;99.90;;;;;;5051129;28;20079;-50
2023/05/21 09:56:55;;;;;;;10.15;6.38;;;20.10;99.90;;;;;;5051418;28;20033;-46
2023/05/21 09:59:21;;;;;;;13.30;7.72;;;20.20;99.90;;;;;;5051034;28;20087;-47
2023/05/21 10:01:51;;;;;;;12.57;7.53;;;20.40;99.90;;;;;;5050807;28;20029;-50
2023/05/21 10:04:17;;;;;;;10.95;6.82;;;20.40;99.90;;;;;;5050906;28;20116;-48
2023/05/21 10:06:46;;;;;;;12.50;7.43;;;20.60;99.90;;;;;;5051183;28;20108;-49
2023/05/21 10:09:16;;;;;;;12.85;7.28;;;20.80;99.90;;;;;;5050996;28;20099;-49
2023/05/21 10:11:44;;;;;;;12.13;7.35;;;20.80;99.90;;;;;;5050714;28;20493;-48
2023/05/21 10:14:21;;;;;;;15.83;7.63;;;21.10;99.90;;;;;;5049428;28;20044;-52
2023/05/21 10:16:47;;;;;;;12.75;7.22;;;21.10;99.90;;;;;;5050943;28;20413;-49
2023/05/21 10:19:14;;;;;;;12.70;7.65;;;21.20;99.90;;;;;;5050769;28;20036;-49
2023/05/21 10:21:40;;;;;;;13.30;7.47;;;21.30;99.90;;;;;;5050507;28;20032;-48
2023/05/21 10:24:08;;;;;;;11.05;6.65;;;21.30;99.90;;;;;;5050665;28;20029;-48
2023/05/21 10:26:35;;;;;;;12.50;7.63;;;21.40;99.90;;;;;;5050680;28;20482;-49
2023/05/21 10:29:01;;;;;;;14.95;7.85;;;21.60;99.90;;;;;;5050958;28;20025;-49
2023/05/21 10:31:28;;;;;;;12.00;7.03;;;21.60;99.90;;;;;;5050600;28;20033;-51
2023/05/21 10:33:55;;;;;;;11.88;7.80;;;21.80;99.90;;;;;;5050493;28;20036;-48
2023/05/21 10:36:22;;;;;;;10.68;6.97;;;21.80;99.90;;;;;;5050991;28;20159;-48
2023/05/21 10:38:48;;;;;;;13.75;7.88;;;21.80;99.90;;;;;;5050477;28;20429;-49
2023/05/21 10:41:17;;;;;;;11.32;7.75;;;22.00;99.90;;;;;;5050379;28;20029;-52
2023/05/21 10:44:01;;;;;;;12.00;7.45;;;21.90;99.90;;;;;;5050487;28;20099;-49
2023/05/21 10:47:05;;;;;;;13.27;7.50;;;22.00;99.90;;;;;;5050672;28;20025;-50
2023/05/21 10:49:59;;;;;;;12.43;7.35;;;22.00;99.90;;;;;;5049997;28;20037;-53
2023/05/21 10:52:43;;;;;;;12.65;7.65;;;21.80;99.90;;;;;;5050289;28;20079;-53
2023/05/21 10:55:19;;;;;;;13.40;8.15;;;21.40;99.90;;;;;;5053730;28;20047;-52
2023/05/21 10:58:06;;;;;;;11.98;7.18;;;21.20;99.90;;;;;;5054610;28;20033;-49
2023/05/21 11:00:32;;;;;;;12.07;7.20;;;21.00;99.90;;;;;;5054269;28;20446;-48
2023/05/21 11:03:00;;;;;;;12.25;7.47;;;20.90;99.90;;;;;;5054118;28;20060;-52
2023/05/21 11:05:40;;;;;;;13.23;7.38;;;20.90;99.90;;;;;;5054439;28;20032;-49
2023/05/21 11:08:20;;;;;;;13.65;7.60;;;20.90;99.90;;;;;;5054238;28;20489;-49
2023/05/21 11:10:51;;;;;;;13.18;7.40;;;20.90;99.90;;;;;;5054439;28;20374;-50
2023/05/21 11:13:18;;;;;;;12.60;7.80;;;20.90;99.90;;;;;;5054088;28;20116;-49
2023/05/21 11:16:04;;;;;;;15.32;8.43;;;20.90;99.90;;;;;;5054047;28;20384;-48
2023/05/21 11:18:30;;;;;;;12.65;7.45;;;20.90;99.90;;;;;;5053938;28;20421;-50
2023/05/21 11:21:07;;;;;;;12.63;7.28;;;20.90;99.90;;;;;;5053617;28;20033;-49
2023/05/21 11:23:52;;;;;;;11.32;6.85;;;21.00;99.90;;;;;;5053988;28;20079;-53
2023/05/21 11:26:25;;;;;;;12.52;7.07;;;21.00;99.90;;;;;;5054057;28;20513;-48
2023/05/21 11:29:09;;;;;;;13.63;7.47;;;21.10;99.90;;;;;;5054067;28;20485;-52
2023/05/21 11:31:38;;;;;;;13.05;6.63;;;21.20;99.90;;;;;;5053908;28;20171;-51
2023/05/21 11:34:10;;;;;;;15.57;7.45;;;21.40;99.90;;;;;;5052275;28;20071;-49
2023/05/21 11:36:37;;;;;;;12.45;7.32;;;21.50;99.90;;;;;;5053561;28;20504;-49
2023/05/21 11:39:09;;;;;;;11.82;6.68;;;21.60;99.90;;;;;;5053704;28;20496;-51
2023/05/21 11:42:00;;;;;;;11.27;6.50;;;21.70;99.90;;;;;;5053257;28;20024;-50
2023/05/21 11:44:47;;;;;;;10.13;6.65;;;21.80;99.90;;;;;;5053936;28;20454;-53
2023/05/21 11:47:17;;;;;;;11.75;6.78;;;22.00;99.90;;;;;;5053500;28;20454;-51
2023/05/21 11:49:43;;;;;;;11.48;6.82;;;22.10;99.90;;;;;;5053699;28;20029;-48
2023/05/21 11:52:10;;;;;;;10.00;6.57;;;22.20;99.90;;;;;;5053269;28;20036;-48
2023/05/21 11:54:44;;;;;;;11.48;7.57;;;22.20;99.90;;;;;;5053646;28;20028;-50
2023/05/21 11:57:14;;;;;;;11.80;7.45;;;22.10;99.90;;;;;;5053433;28;20040;-49
2023/05/21 11:59:40;;;;;;;11.50;7.35;;;22.10;99.90;;;;;;5053882;28;20032;-50
2023/05/21 12:02:07;;;;;;;11.85;7.13;;;22.00;99.90;;;;;;5053102;28;20100;-48
2023/05/21 12:04:37;;;;;;;11.35;7.15;;;22.10;99.90;;;;;;5052993;28;20032;-49
2023/05/21 12:07:06;;;;;;;14.40;7.25;;;22.20;99.90;;;;;;5052749;28;20370;-48
2023/05/21 12:09:41;;;;;;;;;;;22.20;99.90;;;;;;5053870;28;20062;-48
2023/05/21 12:12:07;;;;;;;11.60;6.93;;;22.30;99.90;;;;;;5053085;28;20313;-53
2023/05/21 12:14:34;;;;;;;12.35;7.13;;;22.30;99.90;;;;;;5053239;28;20057;-50
2023/05/21 12:17:01;;;;;;;13.30;7.13;;;22.50;99.90;;;;;;5053110;28;20033;-50
2023/05/21 12:19:30;;;;;;;12.95;7.72;;;22.60;99.90;;;;;;5053271;28;20091;-48
2023/05/21 12:21:58;;;;;;;14.80;8.82;;;22.60;99.90;;;;;;5053113;28;20032;-48
2023/05/21 12:24:24;;;;;;;13.07;7.65;;;22.50;99.90;;;;;;5053486;28;20377;-49
2023/05/21 12:26:50;;;;;;;11.25;7.22;;;22.60;99.90;;;;;;5053231;28;20029;-49
2023/05/21 12:29:16;;;;;;;14.38;7.50;;;22.60;99.90;;;;;;5053017;28;20397;-48
2023/05/21 12:31:49;;;;;;;12.68;7.53;;;22.70;99.90;;;;;;5052420;28;20033;-48
2023/05/21 12:34:17;;;;;;;11.57;7.18;;;22.60;99.90;;;;;;5052808;28;20032;-48
2023/05/21 12:36:50;;;;;;;12.30;7.32;;;22.60;99.90;;;;;;5052757;28;20037;-49
2023/05/21 12:39:16;;;;;;;11.07;6.72;;;22.60;99.90;;;;;;5052598;28;20029;-48
2023/05/21 12:41:42;;;;;;;11.70;7.68;;;22.60;99.90;;;;;;5052243;28;20033;-48
2023/05/21 12:44:10;;;;;;;10.77;7.13;;;22.70;99.90;;;;;;5052324;28;20025;-52
2023/05/21 12:46:36;;;;;;;11.32;8.02;;;22.70;99.90;;;;;;5052459;28;20021;-48
2023/05/21 12:49:01;;;;;;;12.20;7.97;;;22.90;99.90;;;;;;5052605;28;20116;-50
2023/05/21 12:51:38;;;;;;;12.98;7.47;;;22.80;99.90;;;;;;5052071;28;20069;-50
2023/05/21 12:54:10;;;;;;;11.32;7.72;;;22.90;99.90;;;;;;5052170;28;20025;-48